Time;durP1;ratioP1;P1;durP2;ratioP2;P2;SDS_P1;SDS_P2;PMS_P1;PMS_P2;Temp;Humidity;BMP_temperature;BMP_pressure;BME280_temperature;BME280_humidity;BME280_pressure;Samples;Min_cycle;Max_cycle;Signal;HPM_P1;HPM_P2
2023/05/05 00:01:59;;;;;;;;;;;;;;;8.42;46.03;100079.16;5076958;28;20442;-79
2023/05/05 00:04:24;;;;;;;;;;;;;;;8.35;46.43;100079.34;5125371;27;20022;-78
2023/05/05 00:06:50;;;;;;;;;;;;;;;8.27;46.58;100072.44;5114683;27;19924;-79
2023/05/05 00:09:18;;;;;;;;;;;;;;;8.22;46.91;100072.38;5092529;28;19924;-78
2023/05/05 00:11:44;;;;;;;;;;;;;;;8.15;46.82;100074.50;5095100;27;19931;-78
2023/05/05 00:14:10;;;;;;;;;;;;;;;8.08;47.07;100074.66;5110413;27;19923;-78
2023/05/05 00:16:36;;;;;;;;;;;;;;;8.03;47.20;100074.56;5092664;27;20443;-78
2023/05/05 00:19:01;;;;;;;;;;;;;;;7.97;47.33;100065.53;5078612;28;20010;-78
2023/05/05 00:21:27;;;;;;;;;;;;;;;7.91;47.47;100067.38;5113175;27;20030;-78
2023/05/05 00:23:53;;;;;;;;;;;;;;;7.87;47.81;100068.91;5103401;27;20022;-78
2023/05/05 00:26:20;;;;;;;;;;;;;;;7.83;47.71;100069.69;5095614;27;19986;-77
2023/05/05 00:28:49;;;;;;;;;;;;;;;7.79;47.70;100069.34;5074143;27;19930;-78
2023/05/05 00:31:15;;;;;;;;;;;;;;;7.76;48.09;100070.66;5097173;27;19923;-78
2023/05/05 00:33:41;;;;;;;;;;;;;;;7.73;48.18;100073.09;5103560;27;20301;-78
2023/05/05 00:36:08;;;;;;;;;;;;;;;7.70;48.23;100071.69;5111980;27;19927;-77
2023/05/05 00:38:33;;;;;;;;;;;;;;;7.72;48.33;100074.97;5111832;27;20022;-78
2023/05/05 00:40:59;;;;;;;;;;;;;;;7.71;48.24;100077.94;5089008;27;20030;-78
2023/05/05 00:43:27;;;;;;;;;;;;;;;7.69;48.31;100070.03;5104848;27;19924;-77
2023/05/05 00:45:57;;;;;;;;;;;;;;;7.65;48.37;100066.16;5068798;28;19938;-79
2023/05/05 00:48:24;;;;;;;;;;;;;;;7.61;48.45;100067.72;5119899;27;19923;-78
2023/05/05 00:50:50;;;;;;;;;;;;;;;7.58;48.65;100060.06;5103622;27;19928;-78
2023/05/05 00:53:16;;;;;;;;;;;;;;;7.56;48.80;100060.28;5106610;28;19968;-78
2023/05/05 00:55:42;;;;;;;;;;;;;;;7.54;48.77;100058.91;5102412;27;19923;-78
2023/05/05 00:58:08;;;;;;;;;;;;;;;7.49;48.96;100065.09;5079917;28;20018;-78
2023/05/05 01:00:36;;;;;;;;;;;;;;;7.44;49.10;100056.84;5095326;27;19931;-78
2023/05/05 01:03:02;;;;;;;;;;;;;;;7.43;49.14;100063.38;5109873;27;19923;-78
2023/05/05 01:05:32;;;;;;;;;;;;;;;7.38;49.33;100070.34;5111400;27;19929;-78
2023/05/05 01:08:04;;;;;;;;;;;;;;;7.33;49.22;100078.44;5092795;27;19962;-78
2023/05/05 01:10:35;;;;;;;;;;;;;;;7.35;49.66;100072.75;5075741;27;19934;-78
2023/05/05 01:13:05;;;;;;;;;;;;;;;7.35;49.76;100070.84;5068883;28;20019;-77
2023/05/05 01:15:33;;;;;;;;;;;;;;;7.34;49.78;100076.56;5111778;27;20328;-77
2023/05/05 01:18:05;;;;;;;;;;;;;;;7.33;49.94;100073.00;5106051;27;19923;-78
2023/05/05 01:20:35;;;;;;;;;;;;;;;7.30;50.08;100067.22;5110771;27;19928;-77
2023/05/05 01:23:04;;;;;;;;;;;;;;;7.27;50.21;100060.41;5106918;27;20443;-78
2023/05/05 01:25:43;;;;;;;;;;;;;;;7.27;50.44;100062.28;5090564;28;19923;-78
2023/05/05 01:28:18;;;;;;;;;;;;;;;7.21;50.76;100059.47;5092872;27;20026;-77
2023/05/05 01:30:56;;;;;;;;;;;;;;;7.17;51.06;100061.03;5081635;27;19924;-78
2023/05/05 01:33:24;;;;;;;;;;;;;;;7.12;51.20;100065.56;5111267;27;19971;-78
2023/05/05 01:35:53;;;;;;;;;;;;;;;7.09;51.10;100056.00;5092407;27;19975;-79
2023/05/05 01:38:21;;;;;;;;;;;;;;;7.08;51.31;100052.44;5119747;27;19924;-79
2023/05/05 01:40:48;;;;;;;;;;;;;;;7.06;51.27;100041.00;5088391;28;19930;-78
2023/05/05 01:43:17;;;;;;;;;;;;;;;7.03;51.29;100044.22;5076634;28;19931;-78
2023/05/05 01:45:44;;;;;;;;;;;;;;;6.99;51.44;100053.09;5076989;28;20024;-78
2023/05/05 01:48:11;;;;;;;;;;;;;;;6.97;51.53;100044.38;5095038;28;20332;-74
2023/05/05 01:50:40;;;;;;;;;;;;;;;6.96;51.80;100051.72;5096586;28;19924;-74
2023/05/05 01:53:08;;;;;;;;;;;;;;;6.92;51.65;100051.38;5102956;28;20782;-75
2023/05/05 01:55:35;;;;;;;;;;;;;;;6.91;51.92;100048.88;5093271;28;19923;-74
2023/05/05 01:58:02;;;;;;;;;;;;;;;6.93;52.11;100049.44;5120308;28;20302;-74
2023/05/05 02:00:29;;;;;;;;;;;;;;;6.99;52.04;100044.94;5068497;28;20016;-74
2023/05/05 02:02:56;;;;;;;;;;;;;;;7.08;51.88;100043.47;5083716;28;20519;-74
2023/05/05 02:05:25;;;;;;;;;;;;;;;7.14;51.47;100052.56;5109565;28;19930;-74
2023/05/05 02:07:55;;;;;;;;;;;;;;;7.21;51.56;100048.59;5094345;28;19927;-74
2023/05/05 02:10:42;;;;;;;;;;;;;;;7.26;51.09;100041.59;5083638;28;19931;-74
2023/05/05 02:13:09;;;;;;;;;;;;;;;7.29;51.20;100041.09;5108373;28;19923;-74
2023/05/05 02:15:36;;;;;;;;;;;;;;;7.41;51.13;100046.44;5098116;28;20382;-75
2023/05/05 02:18:04;;;;;;;;;;;;;;;7.46;50.88;100043.81;5097727;28;20034;-75
2023/05/05 02:20:31;;;;;;;;;;;;;;;7.52;50.79;100040.09;5090608;28;19965;-74
2023/05/05 02:22:58;;;;;;;;;;;;;;;7.55;50.49;100044.22;5096203;28;20018;-75
2023/05/05 02:25:25;;;;;;;;;;;;;;;7.54;50.58;100045.31;5080926;27;20018;-75
2023/05/05 02:27:53;;;;;;;;;;;;;;;7.56;50.35;100049.41;5095297;27;19928;-75
2023/05/05 02:30:20;;;;;;;;;;;;;;;7.55;49.88;100044.22;5119258;27;20520;-75
2023/05/05 02:32:49;;;;;;;;;;;;;;;7.51;49.73;100043.91;5111496;27;19955;-75
2023/05/05 02:35:17;;;;;;;;;;;;;;;7.54;49.56;100045.31;5109920;27;19924;-75
2023/05/05 02:37:47;;;;;;;;;;;;;;;7.59;49.23;100048.09;5116735;27;19923;-75
2023/05/05 02:40:18;;;;;;;;;;;;;;;7.68;48.84;100043.06;5115541;27;20446;-75
2023/05/05 02:42:46;;;;;;;;;;;;;;;7.73;48.56;100043.16;5088046;27;19923;-75
2023/05/05 02:45:14;;;;;;;;;;;;;;;7.84;48.40;100044.13;5091937;28;19947;-75
2023/05/05 02:47:43;;;;;;;;;;;;;;;7.95;48.17;100046.72;5080816;27;20380;-78
2023/05/05 02:50:10;;;;;;;;;;;;;;;8.04;47.86;100041.66;5096616;27;20030;-78
2023/05/05 02:52:39;;;;;;;;;;;;;;;8.13;48.00;100044.78;5117532;27;20567;-78
2023/05/05 02:55:06;;;;;;;;;;;;;;;8.21;47.69;100038.91;5121766;27;20054;-77
2023/05/05 02:57:40;;;;;;;;;;;;;;;8.28;47.75;100044.16;5099699;27;19929;-77
2023/05/05 03:00:09;;;;;;;;;;;;;;;8.33;47.32;100038.75;5113715;27;19946;-77
2023/05/05 03:02:40;;;;;;;;;;;;;;;8.33;47.46;100041.47;5095885;28;20413;-77
2023/05/05 03:05:09;;;;;;;;;;;;;;;8.31;47.47;100040.91;5090558;27;19953;-77
2023/05/05 03:07:45;;;;;;;;;;;;;;;8.29;47.75;100037.63;5088325;27;19976;-77
2023/05/05 03:10:13;;;;;;;;;;;;;;;8.25;48.19;100038.38;5094885;28;19980;-78
2023/05/05 03:12:47;;;;;;;;;;;;;;;8.16;48.46;100036.09;5084734;27;20403;-78
2023/05/05 03:15:21;;;;;;;;;;;;;;;8.12;48.56;100040.41;5104309;27;20009;-80
2023/05/05 03:17:47;;;;;;;;;;;;;;;8.12;48.54;100045.00;5086467;28;19968;-80
2023/05/05 03:20:13;;;;;;;;;;;;;;;8.15;48.50;100044.53;5077406;28;20216;-78
2023/05/05 03:22:43;;;;;;;;;;;;;;;8.19;48.52;100046.47;5093209;27;19950;-78
2023/05/05 03:25:12;;;;;;;;;;;;;;;8.18;48.51;100036.66;5056569;28;20333;-78
2023/05/05 03:27:38;;;;;;;;;;;;;;;8.15;48.51;100041.81;5101145;27;19923;-78
2023/05/05 03:30:06;;;;;;;;;;;;;;;8.15;48.51;100044.53;5096245;28;20314;-78
2023/05/05 03:32:35;;;;;;;;;;;;;;;8.17;48.83;100048.63;5089179;27;19950;-79
2023/05/05 03:35:01;;;;;;;;;;;;;;;8.18;48.91;100050.28;5073564;27;19950;-79
2023/05/05 03:37:30;;;;;;;;;;;;;;;8.13;49.03;100044.78;5104779;27;20270;-79
2023/05/05 03:39:56;;;;;;;;;;;;;;;8.06;49.18;100044.16;5094804;27;19927;-78
2023/05/05 03:42:22;;;;;;;;;;;;;;;7.99;49.43;100035.31;5086202;27;20608;-79
2023/05/05 03:44:51;;;;;;;;;;;;;;;7.93;49.61;100051.59;5108946;27;20026;-78
2023/05/05 03:47:18;;;;;;;;;;;;;;;7.87;50.02;100059.94;5073167;28;19923;-78
2023/05/05 03:49:44;;;;;;;;;;;;;;;7.83;50.13;100056.06;5114881;27;19927;-79
2023/05/05 03:52:10;;;;;;;;;;;;;;;7.79;50.69;100062.00;5111925;27;19924;-78
2023/05/05 03:54:36;;;;;;;;;;;;;;;7.64;51.10;100068.06;5107270;27;19923;-78
2023/05/05 03:57:02;;;;;;;;;;;;;;;7.56;51.74;100062.19;5104704;27;20506;-78
2023/05/05 03:59:28;;;;;;;;;;;;;;;7.62;51.58;100070.19;5067874;28;19981;-78
2023/05/05 04:01:54;;;;;;;;;;;;;;;7.74;51.54;100077.47;5098351;27;20441;-78
2023/05/05 04:04:22;;;;;;;;;;;;;;;7.85;51.49;100081.16;5114878;27;19923;-78
2023/05/05 04:06:47;;;;;;;;;;;;;;;7.91;51.40;100086.41;5094968;27;19952;-78
2023/05/05 04:09:14;;;;;;;;;;;;;;;7.82;51.43;100063.41;5119412;27;20065;-78
2023/05/05 04:11:40;;;;;;;;;;;;;;;7.85;51.77;100079.22;5092911;28;20119;-78
2023/05/05 04:14:06;;;;;;;;;;;;;;;7.86;51.90;100074.63;5070715;28;20434;-78
2023/05/05 04:16:33;;;;;;;;;;;;;;;7.82;52.03;100081.66;5083109;27;19954;-78
2023/05/05 04:18:58;;;;;;;;;;;;;;;7.75;52.19;100077.19;5109060;27;19962;-77
2023/05/05 04:21:26;;;;;;;;;;;;;;;7.78;52.33;100084.84;5073842;28;19924;-78
2023/05/05 04:23:52;;;;;;;;;;;;;;;7.78;52.45;100084.03;5094862;28;19923;-79
2023/05/05 04:26:19;;;;;;;;;;;;;;;7.71;52.44;100088.81;5081779;27;19924;-77
2023/05/05 04:28:45;;;;;;;;;;;;;;;7.57;52.59;100091.91;5089798;28;19930;-77
2023/05/05 04:31:12;;;;;;;;;;;;;;;7.49;52.73;100097.75;5079084;28;19942;-77
2023/05/05 04:33:41;;;;;;;;;;;;;;;7.46;53.01;100099.03;5089370;27;19923;-75
2023/05/05 04:36:07;;;;;;;;;;;;;;;7.43;52.86;100101.47;5088529;27;19927;-75
2023/05/05 04:38:35;;;;;;;;;;;;;;;7.35;53.42;100108.94;5110078;27;19929;-74
2023/05/05 04:41:05;;;;;;;;;;;;;;;7.32;53.60;100103.16;5076099;27;19965;-74
2023/05/05 04:43:30;;;;;;;;;;;;;;;7.35;53.56;100110.84;5106821;27;19927;-74
2023/05/05 04:45:56;;;;;;;;;;;;;;;7.38;53.52;100107.63;5086517;27;20453;-74
2023/05/05 04:48:26;;;;;;;;;;;;;;;7.35;53.56;100108.13;5078470;28;20022;-74
2023/05/05 04:50:52;;;;;;;;;;;;;;;7.31;53.69;100104.22;5117367;27;20480;-75
2023/05/05 04:53:18;;;;;;;;;;;;;;;7.17;53.60;100109.97;5097715;27;19928;-74
2023/05/05 04:55:45;;;;;;;;;;;;;;;7.12;53.73;100118.06;5079662;28;19966;-74
2023/05/05 04:58:11;;;;;;;;;;;;;;;7.10;53.67;100120.19;5113937;27;19931;-74
2023/05/05 05:00:37;;;;;;;;;;;;;;;7.04;53.72;100124.72;5120152;27;19952;-73
2023/05/05 05:03:03;;;;;;;;;;;;;;;7.04;53.70;100126.63;5108191;27;19923;-73
2023/05/05 05:05:29;;;;;;;;;;;;;;;7.09;54.03;100132.94;5098291;27;20346;-73
2023/05/05 05:07:55;;;;;;;;;;;;;;;7.13;53.99;100127.06;5121138;27;19923;-74
2023/05/05 05:10:22;;;;;;;;;;;;;;;7.11;54.08;100129.19;5090616;28;20348;-73
2023/05/05 05:12:50;;;;;;;;;;;;;;;7.09;54.03;100132.13;5111195;27;19923;-74
2023/05/05 05:15:16;;;;;;;;;;;;;;;7.16;54.23;100137.44;5074203;27;20021;-74
2023/05/05 05:17:42;;;;;;;;;;;;;;;7.23;54.03;100138.09;5094004;28;19927;-75
2023/05/05 05:20:08;;;;;;;;;;;;;;;7.25;53.75;100141.38;5089220;27;19923;-74
2023/05/05 05:22:37;;;;;;;;;;;;;;;7.34;53.64;100144.56;5101455;27;20025;-74
2023/05/05 05:25:05;;;;;;;;;;;;;;;7.32;53.39;100141.25;5074379;28;20447;-74
2023/05/05 05:27:31;;;;;;;;;;;;;;;7.41;53.00;100136.22;5069802;28;20384;-74
2023/05/05 05:29:58;;;;;;;;;;;;;;;7.59;52.77;100132.47;5089448;27;19930;-74
2023/05/05 05:32:25;;;;;;;;;;;;;;;7.88;52.42;100129.66;5094733;28;19984;-74
2023/05/05 05:34:51;;;;;;;;;;;;;;;8.10;51.74;100132.44;5085649;28;19927;-75
2023/05/05 05:37:17;;;;;;;;;;;;;;;8.10;51.70;100129.72;5116522;27;20389;-74
2023/05/05 05:39:43;;;;;;;;;;;;;;;7.86;51.97;100135.34;5084733;28;19923;-74
2023/05/05 05:42:08;;;;;;;;;;;;;;;7.76;52.67;100137.91;5093596;27;19976;-78
2023/05/05 05:44:35;;;;;;;;;;;;;;;7.88;52.40;100133.22;5104181;28;20226;-78
2023/05/05 05:47:02;;;;;;;;;;;;;;;8.18;51.71;100134.72;5098659;27;20120;-78
2023/05/05 05:49:28;;;;;;;;;;;;;;;8.62;50.76;100133.97;5117749;27;19934;-78
2023/05/05 05:51:54;;;;;;;;;;;;;;;8.91;50.04;100141.13;5099009;27;19923;-77
2023/05/05 05:54:20;;;;;;;;;;;;;;;8.93;49.79;100137.06;5102429;27;19927;-77
2023/05/05 05:56:46;;;;;;;;;;;;;;;8.96;49.61;100138.44;5116171;28;19968;-77
2023/05/05 05:59:12;;;;;;;;;;;;;;;8.97;49.66;100134.63;5086657;28;19923;-77
2023/05/05 06:01:39;;;;;;;;;;;;;;;8.93;49.41;100134.34;5115849;28;19953;-77
2023/05/05 06:04:07;;;;;;;;;;;;;;;8.88;49.52;100134.25;5100781;28;19927;-78
2023/05/05 06:06:33;;;;;;;;;;;;;;;8.80;49.88;100140.19;5094357;28;20275;-76
2023/05/05 06:08:59;;;;;;;;;;;;;;;8.75;49.59;100146.41;5107820;28;19924;-74
2023/05/05 06:11:25;;;;;;;;;;;;;;;8.67;49.79;100156.91;5084538;28;20260;-73
2023/05/05 06:13:51;;;;;;;;;;;;;;;8.61;49.68;100156.03;5111210;28;19937;-74
2023/05/05 06:16:17;;;;;;;;;;;;;;;8.55;49.77;100160.59;5098135;28;19931;-77
2023/05/05 06:18:44;;;;;;;;;;;;;;;8.49;50.37;100156.94;5086371;28;19923;-77
2023/05/05 06:21:12;;;;;;;;;;;;;;;8.47;50.21;100148.19;5105453;28;19927;-77
2023/05/05 06:23:38;;;;;;;;;;;;;;;8.44;50.20;100147.88;5092036;28;20007;-77
2023/05/05 06:26:06;;;;;;;;;;;;;;;8.38;50.31;100150.53;5077340;28;20373;-74
2023/05/05 06:28:32;;;;;;;;;;;;;;;8.40;50.32;100152.16;5103194;28;20033;-74
2023/05/05 06:30:58;;;;;;;;;;;;;;;8.40;50.25;100144.84;5113893;28;20072;-74
2023/05/05 06:33:24;;;;;;;;;;;;;;;8.35;50.23;100137.41;5087551;28;19934;-74
2023/05/05 06:35:50;;;;;;;;;;;;;;;8.35;50.11;100137.41;5085582;28;19930;-74
2023/05/05 06:38:18;;;;;;;;;;;;;;;8.36;50.44;100141.78;5111457;28;20236;-74
2023/05/05 06:40:46;;;;;;;;;;;;;;;8.46;50.41;100140.28;5123826;28;19927;-74
2023/05/05 06:43:11;;;;;;;;;;;;;;;8.55;50.29;100146.16;5090470;28;20310;-74
2023/05/05 06:45:44;;;;;;;;;;;;;;;8.67;49.64;100157.75;5073639;28;20458;-74
2023/05/05 06:48:09;;;;;;;;;;;;;;;8.80;49.35;100146.44;5105374;28;19946;-74
2023/05/05 06:50:35;;;;;;;;;;;;;;;8.94;48.98;100151.50;5105226;28;20445;-74
2023/05/05 06:53:01;;;;;;;;;;;;;;;9.05;48.61;100153.28;5095858;28;19923;-74
2023/05/05 06:55:28;;;;;;;;;;;;;;;9.20;48.14;100151.81;5084051;28;19923;-74
2023/05/05 06:57:55;;;;;;;;;;;;;;;9.32;47.73;100151.63;5110243;28;19927;-74
2023/05/05 07:00:21;;;;;;;;;;;;;;;9.50;47.63;100162.19;5100284;28;19932;-74
2023/05/05 07:02:47;;;;;;;;;;;;;;;9.68;47.21;100168.38;5119676;28;20126;-74
2023/05/05 07:05:13;;;;;;;;;;;;;;;9.75;46.91;100171.69;5116355;28;19994;-74
2023/05/05 07:07:40;;;;;;;;;;;;;;;9.78;46.45;100173.91;5120071;27;19923;-74
2023/05/05 07:10:06;;;;;;;;;;;;;;;9.99;45.97;100175.97;5098215;27;20026;-74
2023/05/05 07:12:33;;;;;;;;;;;;;;;10.29;45.28;100182.75;5113468;27;19924;-76
2023/05/05 07:14:59;;;;;;;;;;;;;;;10.84;43.86;100177.88;5079843;27;19923;-77
2023/05/05 07:17:25;;;;;;;;;;;;;;;11.16;43.36;100174.13;5117633;27;20463;-77
2023/05/05 07:19:53;;;;;;;;;;;;;;;11.08;43.09;100174.66;5121972;27;19927;-77
2023/05/05 07:22:19;;;;;;;;;;;;;;;10.70;43.92;100171.22;5114642;27;19988;-78
2023/05/05 07:24:45;;;;;;;;;;;;;;;10.45;44.36;100168.09;5123544;27;19928;-78
2023/05/05 07:27:11;;;;;;;;;;;;;;;10.38;44.79;100167.50;5094435;27;20014;-77
2023/05/05 07:29:38;;;;;;;;;;;;;;;10.76;44.04;100179.19;5096656;27;19923;-77
2023/05/05 07:32:04;;;;;;;;;;;;;;;11.11;43.50;100171.41;5112069;27;19923;-77
2023/05/05 07:34:33;;;;;;;;;;;;;;;11.38;42.99;100183.22;5130072;27;20302;-78
2023/05/05 07:36:58;;;;;;;;;;;;;;;11.54;42.03;100182.16;5109646;27;20022;-77
2023/05/05 07:39:24;;;;;;;;;;;;;;;11.93;40.94;100178.06;5121797;27;19991;-77
2023/05/05 07:41:50;;;;;;;;;;;;;;;12.13;40.70;100184.66;5107419;27;20115;-78
2023/05/05 07:44:16;;;;;;;;;;;;;;;11.90;40.85;100181.34;5128772;27;20381;-77
2023/05/05 07:46:43;;;;;;;;;;;;;;;11.70;41.17;100171.22;5116920;27;19927;-77
2023/05/05 07:49:09;;;;;;;;;;;;;;;11.18;41.98;100171.16;5127309;27;19938;-77
2023/05/05 07:51:35;;;;;;;;;;;;;;;10.69;43.13;100175.06;5092583;27;19931;-77
2023/05/05 07:54:01;;;;;;;;;;;;;;;10.26;44.02;100175.88;5114685;27;19927;-74
2023/05/05 07:56:26;;;;;;;;;;;;;;;9.93;44.96;100181.41;5096089;28;20030;-74
2023/05/05 07:58:52;;;;;;;;;;;;;;;9.93;45.17;100186.88;5100531;27;19924;-74
2023/05/05 08:01:18;;;;;;;;;;;;;;;10.11;44.72;100187.53;5097941;27;20412;-75
2023/05/05 08:03:45;;;;;;;;;;;;;;;10.31;44.58;100195.06;5098303;27;19923;-74
2023/05/05 08:06:14;;;;;;;;;;;;;;;10.43;44.11;100197.63;5116958;27;19950;-74
2023/05/05 08:08:40;;;;;;;;;;;;;;;10.37;44.19;100204.09;5119599;27;19923;-74
2023/05/05 08:11:06;;;;;;;;;;;;;;;9.95;45.16;100208.44;5096170;27;19977;-74
2023/05/05 08:13:32;;;;;;;;;;;;;;;9.35;46.79;100214.72;5101335;28;19985;-74
2023/05/05 08:15:58;;;;;;;;;;;;;;;8.87;48.83;100222.59;5106456;27;20386;-74
2023/05/05 08:18:25;;;;;;;;;;;;;;;8.58;50.53;100239.13;5103200;27;19924;-74
2023/05/05 08:20:53;;;;;;;;;;;;;;;8.31;52.20;100245.25;5114519;27;19967;-75
2023/05/05 08:23:19;;;;;;;;;;;;;;;8.08;53.03;100240.81;5100879;27;19930;-74
2023/05/05 08:25:45;;;;;;;;;;;;;;;7.96;53.23;100243.59;5119103;27;20445;-74
2023/05/05 08:28:11;;;;;;;;;;;;;;;7.97;53.03;100249.88;5120550;27;19935;-74
2023/05/05 08:30:37;;;;;;;;;;;;;;;8.07;51.67;100239.97;5118267;27;19923;-77
2023/05/05 08:33:03;;;;;;;;;;;;;;;8.12;50.97;100243.84;5115407;27;20462;-77
2023/05/05 08:35:29;;;;;;;;;;;;;;;8.08;50.95;100254.41;5089071;27;19976;-78
2023/05/05 08:37:56;;;;;;;;;;;;;;;8.08;50.87;100252.50;5104472;28;19927;-78
2023/05/05 08:40:28;;;;;;;;;;;;;;;8.13;51.09;100249.03;5123579;27;19923;-77
2023/05/05 08:42:53;;;;;;;;;;;;;;;8.35;50.81;100256.47;5109928;27;20326;-77
2023/05/05 08:45:19;;;;;;;;;;;;;;;8.60;50.05;100263.41;5121811;27;19962;-77
2023/05/05 08:47:45;;;;;;;;;;;;;;;8.63;49.25;100250.13;5108653;27;19950;-77
2023/05/05 08:50:11;;;;;;;;;;;;;;;8.54;49.37;100262.50;5083280;27;19939;-77
2023/05/05 08:52:39;;;;;;;;;;;;;;;8.41;50.52;100265.53;5105030;27;20417;-77
2023/05/05 08:55:11;;;;;;;;;;;;;;;8.29;50.56;100260.19;5100216;28;20368;-77
2023/05/05 08:57:42;;;;;;;;;;;;;;;8.11;51.22;100263.97;5111748;27;19969;-77
2023/05/05 09:00:08;;;;;;;;;;;;;;;7.91;51.48;100263.41;5123993;27;19929;-77
2023/05/05 09:02:35;;;;;;;;;;;;;;;7.82;51.58;100274.94;5113283;27;19931;-77
2023/05/05 09:05:04;;;;;;;;;;;;;;;7.83;51.75;100271.16;5095557;27;19927;-77
2023/05/05 09:07:30;;;;;;;;;;;;;;;7.75;51.98;100288.69;5089725;27;19924;-77
2023/05/05 09:09:56;;;;;;;;;;;;;;;7.66;52.18;100280.09;5113434;27;19970;-77
2023/05/05 09:12:24;;;;;;;;;;;;;;;7.61;52.22;100280.00;5105230;28;19923;-77
2023/05/05 09:14:50;;;;;;;;;;;;;;;7.63;51.82;100270.53;5106824;27;19931;-78
2023/05/05 09:17:23;;;;;;;;;;;;;;;7.60;51.83;100278.34;5071655;27;19931;-77
2023/05/05 09:20:01;;;;;;;;;;;;;;;7.54;51.94;100276.59;5105621;27;19923;-77
2023/05/05 09:22:32;;;;;;;;;;;;;;;7.51;51.95;100292.34;5099854;28;19923;-77
2023/05/05 09:24:58;;;;;;;;;;;;;;;7.54;51.26;100280.13;5107023;27;20022;-76
2023/05/05 09:27:25;;;;;;;;;;;;;;;7.56;51.05;100283.44;5095025;27;20025;-77
2023/05/05 09:29:51;;;;;;;;;;;;;;;7.72;50.46;100286.44;5113807;27;19950;-77
2023/05/05 09:32:17;;;;;;;;;;;;;;;7.98;49.82;100304.09;5079656;27;20438;-77
2023/05/05 09:34:55;;;;;;;;;;;;;;;8.28;48.92;100288.50;5107340;27;19930;-77
2023/05/05 09:37:26;;;;;;;;;;;;;;;8.55;48.17;100288.69;5127945;27;20467;-77
2023/05/05 09:39:52;;;;;;;;;;;;;;;8.91;46.72;100293.84;5107683;27;19954;-77
2023/05/05 09:42:18;;;;;;;;;;;;;;;9.46;45.93;100300.25;5125771;27;19977;-77
2023/05/05 09:44:45;;;;;;;;;;;;;;;10.44;43.60;100286.75;5119604;27;19958;-78
2023/05/05 09:47:11;;;;;;;;;;;;;;;11.10;41.94;100284.69;5106100;27;19923;-77
2023/05/05 09:49:37;;;;;;;;;;;;;;;11.06;41.33;100284.38;5117693;27;19946;-78
2023/05/05 09:52:11;;;;;;;;;;;;;;;10.74;41.23;100287.22;5113703;27;19923;-77
2023/05/05 09:54:37;;;;;;;;;;;;;;;10.24;41.61;100286.56;5127463;27;19923;-77
2023/05/05 09:57:03;;;;;;;;;;;;;;;10.51;41.68;100286.53;5107210;28;19968;-77
2023/05/05 09:59:29;;;;;;;;;;;;;;;11.24;39.95;100289.66;5126296;28;19923;-78
2023/05/05 10:02:08;;;;;;;;;;;;;;;12.23;38.38;100277.84;5091191;28;20297;-74
2023/05/05 10:04:34;;;;;;;;;;;;;;;13.89;35.24;100278.13;5097291;28;20009;-74
2023/05/05 10:07:00;;;;;;;;;;;;;;;14.91;33.30;100284.16;5126974;28;19923;-74
2023/05/05 10:09:26;;;;;;;;;;;;;;;14.93;33.28;100280.00;5124598;28;20435;-74
2023/05/05 10:11:55;;;;;;;;;;;;;;;15.83;32.35;100273.06;5112465;28;19923;-74
2023/05/05 10:14:22;;;;;;;;;;;;;;;16.18;31.45;100287.44;5090149;28;19934;-74
2023/05/05 10:16:50;;;;;;;;;;;;;;;15.65;31.61;100285.72;5082313;28;19999;-74
2023/05/05 10:19:18;;;;;;;;;;;;;;;14.70;33.14;100278.84;5126403;28;19923;-74
2023/05/05 10:21:49;;;;;;;;;;;;;;;14.48;33.72;100271.06;5106703;28;20421;-74
2023/05/05 10:24:17;;;;;;;;;;;;;;;14.52;33.06;100270.22;5108792;28;19927;-74
2023/05/05 10:26:43;;;;;;;;;;;;;;;14.49;32.84;100283.72;5120138;28;19923;-74
2023/05/05 10:29:12;;;;;;;;;;;;;;;14.17;33.11;100277.66;5105393;28;19924;-75
2023/05/05 10:31:41;;;;;;;;;;;;;;;13.44;33.85;100277.31;5120098;28;20014;-75
2023/05/05 10:34:09;;;;;;;;;;;;;;;12.27;35.97;100287.16;5069051;28;20356;-77
2023/05/05 10:36:37;;;;;;;;;;;;;;;11.69;37.43;100274.47;5069855;28;19927;-77
2023/05/05 10:39:05;;;;;;;;;;;;;;;11.23;38.12;100280.63;5115656;28;19923;-77
2023/05/05 10:41:31;;;;;;;;;;;;;;;10.80;39.06;100285.34;5125317;27;19923;-77
2023/05/05 10:43:58;;;;;;;;;;;;;;;10.44;39.96;100284.00;5113060;27;20680;-77
2023/05/05 10:46:24;;;;;;;;;;;;;;;10.17;40.62;100295.78;5107135;27;20455;-76
2023/05/05 10:48:56;;;;;;;;;;;;;;;10.13;40.97;100293.81;5116122;27;19924;-77
2023/05/05 10:51:26;;;;;;;;;;;;;;;10.77;39.99;100298.44;5119581;27;19928;-77
2023/05/05 10:53:58;;;;;;;;;;;;;;;11.80;38.17;100289.03;5103907;27;19930;-77
2023/05/05 10:56:26;;;;;;;;;;;;;;;12.58;36.58;100287.13;5102428;27;19930;-77
2023/05/05 10:58:52;;;;;;;;;;;;;;;12.25;36.74;100289.38;5072120;27;19923;-77
2023/05/05 11:01:27;;;;;;;;;;;;;;;11.83;37.19;100284.91;5082973;28;19924;-74
2023/05/05 11:04:08;;;;;;;;;;;;;;;11.42;37.71;100285.63;5117835;27;19923;-74
2023/05/05 11:06:33;;;;;;;;;;;;;;;10.85;38.66;100282.63;5098068;27;20337;-74
2023/05/05 11:09:21;;;;;;;;;;;;;;;10.36;39.55;100293.50;5096750;28;20000;-74
2023/05/05 11:12:02;;;;;;;;;;;;;;;9.72;40.24;100284.19;5086444;27;19923;-74
2023/05/05 11:14:28;;;;;;;;;;;;;;;9.34;40.85;100291.38;5101169;27;20007;-77
2023/05/05 11:16:54;;;;;;;;;;;;;;;9.21;40.67;100293.44;5064407;28;19963;-77
2023/05/05 11:19:38;;;;;;;;;;;;;;;9.09;40.64;100281.81;5092206;28;19924;-78
2023/05/05 11:22:05;;;;;;;;;;;;;;;9.11;40.42;100278.81;5083796;28;19927;-78
2023/05/05 11:24:32;;;;;;;;;;;;;;;9.48;39.95;100289.09;5093072;28;20306;-77
2023/05/05 11:26:58;;;;;;;;;;;;;;;10.46;38.31;100286.50;5091623;28;19973;-77
2023/05/05 11:29:23;;;;;;;;;;;;;;;10.66;37.54;100282.25;5117948;27;19932;-77
2023/05/05 11:32:04;;;;;;;;;;;;;;;10.78;37.21;100278.22;5100422;27;19923;-77
2023/05/05 11:34:30;;;;;;;;;;;;;;;11.82;35.75;100275.88;5095902;28;19930;-77
2023/05/05 11:36:59;;;;;;;;;;;;;;;12.13;35.27;100267.72;5115499;27;19923;-77
2023/05/05 11:39:28;;;;;;;;;;;;;;;11.85;35.66;100272.59;5116152;27;20386;-78
2023/05/05 11:42:18;;;;;;;;;;;;;;;11.36;36.51;100279.31;5090044;28;19973;-77
2023/05/05 11:44:44;;;;;;;;;;;;;;;11.38;36.58;100265.34;5078678;28;19923;-77
2023/05/05 11:47:29;;;;;;;;;;;;;;;11.70;36.31;100269.81;5116362;27;19927;-77
2023/05/05 11:49:55;;;;;;;;;;;;;;;12.05;35.49;100269.09;5107746;27;19934;-77
2023/05/05 11:52:23;;;;;;;;;;;;;;;13.05;34.04;100273.31;5127181;27;20192;-77
2023/05/05 11:54:50;;;;;;;;;;;;;;;12.12;34.90;100268.81;5118388;27;19930;-77
2023/05/05 11:57:20;;;;;;;;;;;;;;;11.01;36.40;100284.38;5108845;27;19924;-77
2023/05/05 11:59:52;;;;;;;;;;;;;;;10.21;38.14;100287.91;5111937;27;20018;-74
2023/05/05 12:02:18;;;;;;;;;;;;;;;9.91;38.49;100284.66;5105822;27;20440;-74
2023/05/05 12:04:44;;;;;;;;;;;;;;;9.91;38.51;100281.91;5113199;27;20006;-77
2023/05/05 12:07:13;;;;;;;;;;;;;;;10.24;37.95;100290.09;5110834;28;19931;-77
2023/05/05 12:09:41;;;;;;;;;;;;;;;11.39;36.72;100284.22;5122826;27;19923;-78
2023/05/05 12:12:07;;;;;;;;;;;;;;;13.88;32.58;100282.00;5121491;27;19927;-78
2023/05/05 12:14:35;;;;;;;;;;;;;;;15.42;29.57;100279.97;5125736;27;19951;-78
2023/05/05 12:17:05;;;;;;;;;;;;;;;15.57;29.40;100274.25;5122675;27;19923;-78
2023/05/05 12:19:34;;;;;;;;;;;;;;;17.78;26.96;100280.78;5108938;27;19923;-78
2023/05/05 12:22:01;;;;;;;;;;;;;;;18.91;24.65;100290.16;5074885;27;19931;-78
2023/05/05 12:24:29;;;;;;;;;;;;;;;16.59;26.63;100283.97;5124841;27;19930;-78
2023/05/05 12:26:54;;;;;;;;;;;;;;;16.34;27.01;100273.38;5122331;27;19935;-78
2023/05/05 12:29:23;;;;;;;;;;;;;;;18.63;24.18;100270.16;5119225;27;19923;-78
2023/05/05 12:31:50;;;;;;;;;;;;;;;19.92;22.56;100266.44;5099416;27;19969;-78
2023/05/05 12:34:16;;;;;;;;;;;;;;;20.36;21.81;100268.34;5092929;28;20317;-77
2023/05/05 12:36:42;;;;;;;;;;;;;;;19.67;22.35;100274.41;5074918;27;19927;-77
2023/05/05 12:39:08;;;;;;;;;;;;;;;18.44;23.83;100279.50;5107165;27;20670;-79
2023/05/05 12:41:35;;;;;;;;;;;;;;;19.78;22.33;100277.66;5127672;27;20030;-78
2023/05/05 12:44:04;;;;;;;;;;;;;;;19.77;22.18;100273.28;5127643;27;20372;-78
2023/05/05 12:46:30;;;;;;;;;;;;;;;19.62;20.95;100277.31;5126972;27;19927;-78